createdAt,value
2018-07-14T00:00:26.151Z,96863.00
2018-07-14T00:02:54.070Z,96866.00
2018-07-14T00:05:22.027Z,96870.00
2018-07-14T00:07:49.951Z,96868.00
2018-07-14T00:10:17.929Z,96866.00
2018-07-14T00:12:45.931Z,96880.00
2018-07-14T00:15:13.891Z,96884.00
2018-07-14T00:17:41.863Z,96915.00
2018-07-14T00:20:09.822Z,96953.00
2018-07-14T00:22:37.773Z,96960.00
2018-07-14T00:25:05.867Z,96958.00
2018-07-14T00:27:33.816Z,96959.00
2018-07-14T00:30:01.828Z,96959.00
2018-07-14T00:32:29.827Z,96955.00
2018-07-14T00:34:57.848Z,96956.00
2018-07-14T00:37:25.784Z,96956.00
2018-07-14T00:39:53.816Z,96958.00
2018-07-14T00:42:21.752Z,96961.00
2018-07-14T00:44:49.707Z,96945.00
2018-07-14T00:47:17.688Z,96926.00
2018-07-14T00:49:45.640Z,96902.00
2018-07-14T00:52:13.587Z,96889.00
2018-07-14T00:54:41.535Z,96882.00
2018-07-14T00:57:09.493Z,96888.00
2018-07-14T00:59:37.486Z,96890.00
2018-07-14T01:02:05.635Z,96896.00
2018-07-14T01:04:33.544Z,96882.00
2018-07-14T01:07:01.514Z,96885.00
2018-07-14T01:09:29.461Z,96885.00
2018-07-14T01:11:57.487Z,96880.00
2018-07-14T01:14:25.484Z,96872.00
2018-07-14T01:16:53.418Z,96873.00
2018-07-14T01:19:21.371Z,96868.00
2018-07-14T01:21:49.335Z,96865.00
2018-07-14T01:24:17.420Z,96864.00
2018-07-14T01:26:45.341Z,96859.00
2018-07-14T01:29:14.369Z,96861.00
2018-07-14T01:31:42.675Z,96858.00
2018-07-14T01:34:10.689Z,96858.00
2018-07-14T01:36:38.712Z,96859.00
2018-07-14T01:39:07.409Z,96864.00
2018-07-14T01:41:35.487Z,96867.00
2018-07-14T01:44:03.435Z,96869.00
2018-07-14T01:46:31.441Z,96886.00
2018-07-14T01:48:59.521Z,96884.00
2018-07-14T01:51:27.490Z,96904.00
2018-07-14T01:53:55.432Z,96925.00
2018-07-14T01:56:23.344Z,96940.00
2018-07-14T01:58:51.309Z,96914.00
2018-07-14T02:01:19.308Z,96909.00
2018-07-14T02:03:47.256Z,96923.00
2018-07-14T02:06:15.187Z,96940.00
2018-07-14T02:08:43.132Z,96927.00
2018-07-14T02:11:11.061Z,96912.00
2018-07-14T02:13:39.004Z,96906.00
2018-07-14T02:16:07.257Z,96905.00
2018-07-14T02:18:35.301Z,96912.00
2018-07-14T02:21:03.262Z,96913.00
2018-07-14T02:23:31.192Z,96915.00
2018-07-14T02:25:59.175Z,96889.00
2018-07-14T02:28:27.122Z,96887.00
2018-07-14T02:30:55.061Z,96892.00
2018-07-14T02:33:23.071Z,96902.00
2018-07-14T02:35:50.994Z,96901.00
2018-07-14T02:38:18.913Z,96902.00
2018-07-14T02:40:46.888Z,96894.00
2018-07-14T02:43:14.845Z,96902.00
2018-07-14T02:45:42.830Z,96907.00
2018-07-14T02:48:10.796Z,96903.00
2018-07-14T02:50:38.716Z,96903.00
2018-07-14T02:53:06.721Z,96900.00
2018-07-14T02:55:34.638Z,96901.00
2018-07-14T02:58:02.656Z,96895.00
2018-07-14T03:00:30.576Z,96907.00
2018-07-14T03:02:58.511Z,96917.00
2018-07-14T03:05:26.474Z,96912.00
2018-07-14T03:07:54.439Z,96908.00
2018-07-14T03:10:22.407Z,96911.00
2018-07-14T03:12:50.524Z,96913.00
2018-07-14T03:15:18.406Z,96912.00
2018-07-14T03:17:46.425Z,96916.00
2018-07-14T03:20:14.334Z,96916.00
2018-07-14T03:22:42.316Z,96910.00
2018-07-14T03:25:10.265Z,96912.00
2018-07-14T03:27:38.241Z,96905.00
2018-07-14T03:30:06.333Z,96899.00
2018-07-14T03:32:34.258Z,96896.00
2018-07-14T03:35:02.220Z,96899.00
2018-07-14T03:37:30.180Z,96895.00
2018-07-14T03:39:58.188Z,96896.00
2018-07-14T03:42:26.160Z,96894.00
2018-07-14T03:44:54.197Z,96899.00
2018-07-14T03:47:22.134Z,96902.00
2018-07-14T03:49:50.073Z,96903.00
2018-07-14T03:52:18.104Z,96909.00
2018-07-14T03:54:46.028Z,96909.00
2018-07-14T03:57:13.997Z,96900.00
2018-07-14T03:59:41.945Z,96906.00
2018-07-14T04:02:09.904Z,96906.00
2018-07-14T04:04:37.815Z,96910.00
2018-07-14T04:07:05.737Z,96905.00
2018-07-14T04:09:33.739Z,96910.00
2018-07-14T04:12:01.688Z,96910.00
2018-07-14T04:14:29.659Z,96904.00
2018-07-14T04:16:57.585Z,96905.00
2018-07-14T04:19:25.564Z,96900.00
2018-07-14T04:21:53.501Z,96903.00
2018-07-14T04:24:21.432Z,96904.00
2018-07-14T04:26:49.385Z,96906.00
2018-07-14T04:29:17.302Z,96893.00
2018-07-14T04:31:45.261Z,96898.00
2018-07-14T04:34:13.161Z,96892.00
2018-07-14T04:36:41.118Z,96899.00
2018-07-14T04:39:09.076Z,96891.00
2018-07-14T04:41:37.004Z,96897.00
2018-07-14T04:44:04.954Z,96903.00
2018-07-14T04:46:32.929Z,96905.00
2018-07-14T04:49:01.089Z,96907.00
2018-07-14T04:51:29.037Z,96907.00
2018-07-14T04:53:57.004Z,96905.00
2018-07-14T04:56:24.952Z,96904.00
2018-07-14T04:58:52.856Z,96903.00
2018-07-14T05:01:20.848Z,96900.00
2018-07-14T05:03:48.818Z,96902.00
2018-07-14T05:06:16.817Z,96897.00
2018-07-14T05:08:44.725Z,96902.00
2018-07-14T05:11:12.698Z,96903.00
2018-07-14T05:13:40.661Z,96901.00
2018-07-14T05:16:08.591Z,96911.00
2018-07-14T05:18:36.595Z,96905.00
2018-07-14T05:21:04.598Z,96902.00
2018-07-14T05:23:32.581Z,96896.00
2018-07-14T05:26:00.559Z,96901.00
2018-07-14T05:28:28.585Z,96902.00
2018-07-14T05:30:56.485Z,96909.00
2018-07-14T05:33:24.417Z,96914.00
2018-07-14T05:35:52.370Z,96909.00
2018-07-14T05:38:20.300Z,96907.00
2018-07-14T05:40:48.458Z,96907.00
2018-07-14T05:43:16.421Z,96910.00
2018-07-14T05:45:44.349Z,96906.00
2018-07-14T05:48:12.334Z,96907.00
2018-07-14T05:50:40.262Z,96910.00
2018-07-14T05:53:08.205Z,96925.00
2018-07-14T05:55:36.189Z,96924.00
2018-07-14T05:58:04.244Z,96926.00
2018-07-14T06:00:32.179Z,96932.00
2018-07-14T06:03:00.145Z,96931.00
2018-07-14T06:05:28.090Z,96927.00
2018-07-14T06:07:56.026Z,96927.00
2018-07-14T06:10:23.968Z,96926.00
2018-07-14T06:12:51.910Z,96932.00
2018-07-14T06:15:19.857Z,96935.00
2018-07-14T06:17:47.857Z,96944.00
2018-07-14T06:20:15.781Z,96933.00
2018-07-14T06:22:43.694Z,96933.00
2018-07-14T06:25:11.695Z,96929.00
2018-07-14T06:27:39.599Z,96933.00
2018-07-14T06:30:08.227Z,96931.00
2018-07-14T06:32:36.163Z,96932.00
2018-07-14T06:35:04.250Z,96937.00
2018-07-14T06:37:32.230Z,96929.00
2018-07-14T06:40:00.173Z,96938.00
2018-07-14T06:42:28.165Z,96946.00
2018-07-14T06:44:56.149Z,96942.00
2018-07-14T06:47:24.117Z,96940.00
2018-07-14T06:49:52.043Z,96943.00
2018-07-14T06:52:19.996Z,96946.00
2018-07-14T06:54:47.997Z,96947.00
2018-07-14T06:57:15.958Z,96945.00
2018-07-14T06:59:43.911Z,96946.00
2018-07-14T07:02:11.958Z,96944.00
2018-07-14T07:04:39.924Z,96946.00
2018-07-14T07:07:07.988Z,96945.00
2018-07-14T07:09:35.995Z,96938.00
2018-07-14T07:12:03.976Z,96935.00
2018-07-14T07:14:31.935Z,96935.00
2018-07-14T07:16:59.924Z,96927.00
2018-07-14T07:19:29.295Z,96931.00
2018-07-14T07:21:59.210Z,96932.00
2018-07-14T07:24:32.172Z,96932.00
2018-07-14T07:27:01.514Z,96934.00
2018-07-14T07:29:30.677Z,96946.00
2018-07-14T07:31:59.446Z,96945.00
2018-07-14T07:34:28.353Z,96949.00
2018-07-14T07:36:57.727Z,96942.00
2018-07-14T07:39:27.481Z,96944.00
2018-07-14T07:41:55.591Z,96943.00
2018-07-14T07:44:23.525Z,96941.00
2018-07-14T07:46:51.499Z,96937.00
2018-07-14T07:49:19.430Z,96938.00
2018-07-14T07:51:47.411Z,96940.00
2018-07-14T07:54:16.377Z,96933.00
2018-07-14T07:56:45.273Z,96932.00
2018-07-14T07:59:13.286Z,96933.00
2018-07-14T08:01:41.402Z,96935.00
2018-07-14T08:04:09.393Z,96933.00
2018-07-14T08:06:37.336Z,96931.00
2018-07-14T08:09:06.095Z,96931.00
2018-07-14T08:11:34.011Z,96931.00
2018-07-14T08:14:02.043Z,96932.00
2018-07-14T08:16:32.162Z,96934.00
2018-07-14T08:19:00.153Z,96928.00
2018-07-14T08:21:28.128Z,96921.00
2018-07-14T08:23:56.074Z,96926.00
2018-07-14T08:26:24.341Z,96927.00
2018-07-14T08:28:52.933Z,96921.00
2018-07-14T08:31:20.925Z,96918.00
2018-07-14T08:33:48.952Z,96922.00
2018-07-14T08:36:16.891Z,96921.00
2018-07-14T08:38:44.852Z,96921.00
2018-07-14T08:41:13.001Z,96919.00
2018-07-14T08:43:41.019Z,96923.00
2018-07-14T08:46:09.151Z,96920.00
2018-07-14T08:48:37.148Z,96922.00
2018-07-14T08:51:05.374Z,96918.00
2018-07-14T08:53:33.368Z,96919.00
2018-07-14T08:56:01.346Z,96913.00
2018-07-14T08:58:29.484Z,96926.00
2018-07-14T09:00:59.158Z,96922.00
2018-07-14T09:03:27.307Z,96929.00
2018-07-14T09:05:55.898Z,96927.00
2018-07-14T09:08:23.958Z,96918.00
2018-07-14T09:10:51.972Z,96910.00
2018-07-14T09:13:19.905Z,96907.00
2018-07-14T09:15:47.922Z,96907.00
2018-07-14T09:18:15.888Z,96913.00
2018-07-14T09:20:44.075Z,96912.00
2018-07-14T09:23:12.100Z,96908.00
2018-07-14T09:25:40.065Z,96907.00
2018-07-14T09:28:08.018Z,96902.00
2018-07-14T09:30:36.013Z,96906.00
2018-07-14T09:33:03.964Z,96902.00
2018-07-14T09:35:31.925Z,96893.00
2018-07-14T09:37:59.935Z,96898.00
2018-07-14T09:40:27.820Z,96891.00
2018-07-14T09:42:55.846Z,96895.00
2018-07-14T09:45:23.767Z,96888.00
2018-07-14T09:47:51.794Z,96887.00
2018-07-14T09:50:19.716Z,96885.00
2018-07-14T09:52:47.707Z,96885.00
2018-07-14T09:55:15.785Z,96885.00
2018-07-14T09:57:43.716Z,96885.00
2018-07-14T10:00:29.862Z,96872.00
2018-07-14T10:02:57.765Z,96883.00
2018-07-14T10:05:25.706Z,96881.00
2018-07-14T10:07:53.745Z,96878.00
2018-07-14T10:10:21.741Z,96874.00
2018-07-14T10:12:49.678Z,96881.00
2018-07-14T10:15:17.614Z,96877.00
2018-07-14T10:17:45.602Z,96881.00
2018-07-14T10:20:13.524Z,96882.00
2018-07-14T10:22:41.456Z,96876.00
2018-07-14T10:25:09.399Z,96877.00
2018-07-14T10:27:37.428Z,96873.00
2018-07-14T10:30:05.361Z,96869.00
2018-07-14T10:32:33.334Z,96868.00
2018-07-14T10:35:01.270Z,96862.00
2018-07-14T10:37:29.235Z,96862.00
2018-07-14T10:39:57.156Z,96866.00
2018-07-14T10:42:25.162Z,96861.00
2018-07-14T10:44:53.061Z,96857.00
2018-07-14T10:47:21.034Z,96854.00
2018-07-14T10:49:48.950Z,96848.00
2018-07-14T10:52:17.100Z,96847.00
2018-07-14T10:54:45.021Z,96838.00
2018-07-14T10:57:14.680Z,96850.00
2018-07-14T10:59:43.977Z,96838.00
2018-07-14T11:02:11.938Z,96840.00
2018-07-14T11:04:39.865Z,96836.00
2018-07-14T11:07:07.804Z,96839.00
2018-07-14T11:09:35.825Z,96828.00
2018-07-14T11:12:03.865Z,96830.00
2018-07-14T11:14:31.703Z,96825.00
2018-07-14T11:16:59.669Z,96831.00
2018-07-14T11:19:27.619Z,96826.00
2018-07-14T11:21:55.593Z,96829.00
2018-07-14T11:24:23.521Z,96823.00
2018-07-14T11:26:51.623Z,96818.00
2018-07-14T11:29:19.567Z,96808.00
2018-07-14T11:31:47.546Z,96804.00
2018-07-14T11:34:15.468Z,96803.00
2018-07-14T11:36:43.419Z,96790.00
2018-07-14T11:39:11.419Z,96779.00
2018-07-14T11:41:39.389Z,96785.00
2018-07-14T11:44:07.366Z,96796.00
2018-07-14T11:46:35.343Z,96794.00
2018-07-14T11:49:03.301Z,96764.00
2018-07-14T11:51:31.288Z,96755.00
2018-07-14T11:53:59.245Z,96763.00
2018-07-14T11:56:27.205Z,96762.00
2018-07-14T11:58:55.130Z,96767.00
2018-07-14T12:01:23.132Z,96766.00
2018-07-14T12:03:51.094Z,96770.00
2018-07-14T12:06:19.083Z,96771.00
2018-07-14T12:08:47.009Z,96753.00
2018-07-14T12:11:14.991Z,96728.00
2018-07-14T12:13:42.937Z,96722.00
2018-07-14T12:16:10.937Z,96731.00
2018-07-14T12:18:38.917Z,96716.00
2018-07-14T12:21:06.890Z,96715.00
2018-07-14T12:23:34.821Z,96718.00
2018-07-14T12:26:02.789Z,96708.00
2018-07-14T12:28:30.966Z,96714.00
2018-07-14T12:30:59.034Z,96708.00
2018-07-14T12:33:27.170Z,96710.00
2018-07-14T12:35:55.157Z,96721.00
2018-07-14T12:38:24.023Z,96731.00
2018-07-14T12:40:52.012Z,96718.00
2018-07-14T12:43:20.011Z,96739.00
2018-07-14T12:45:47.927Z,96701.00
2018-07-14T12:48:15.937Z,96695.00
2018-07-14T12:50:43.936Z,96713.00
2018-07-14T12:53:11.879Z,96693.00
2018-07-14T12:55:39.883Z,96692.00
2018-07-14T12:58:07.831Z,96689.00
2018-07-14T13:00:35.802Z,96685.00
2018-07-14T13:03:03.757Z,96671.00
2018-07-14T13:05:31.727Z,96671.00
2018-07-14T13:07:59.714Z,96670.00
2018-07-14T13:10:27.659Z,96696.00
2018-07-14T13:12:55.605Z,96673.00
2018-07-14T13:15:23.565Z,96678.00
2018-07-14T13:17:51.485Z,96666.00
2018-07-14T13:20:19.461Z,96658.00
2018-07-14T13:22:47.447Z,96674.00
2018-07-14T13:25:15.509Z,96669.00
2018-07-14T13:27:43.489Z,96684.00
2018-07-14T13:30:11.481Z,96638.00
2018-07-14T13:32:39.480Z,96642.00
2018-07-14T13:35:07.462Z,96633.00
2018-07-14T13:37:35.429Z,96616.00
2018-07-14T13:40:03.473Z,96655.00
2018-07-14T13:42:31.429Z,96659.00
2018-07-14T13:44:59.428Z,96651.00
2018-07-14T13:47:27.379Z,96655.00
2018-07-14T13:49:55.434Z,96647.00
2018-07-14T13:52:23.386Z,96658.00
2018-07-14T13:54:51.356Z,96644.00
2018-07-14T13:57:19.286Z,96616.00
2018-07-14T13:59:47.257Z,96616.00
2018-07-14T14:02:15.220Z,96615.00
2018-07-14T14:04:43.188Z,96607.00
2018-07-14T14:07:11.126Z,96651.00
2018-07-14T14:09:39.126Z,96651.00
2018-07-14T14:12:07.167Z,96667.00
2018-07-14T14:14:35.321Z,96668.00
2018-07-14T14:17:03.349Z,96663.00
2018-07-14T14:19:31.294Z,96668.00
2018-07-14T14:21:59.264Z,96648.00
2018-07-14T14:24:27.239Z,96651.00
2018-07-14T14:26:55.163Z,96641.00
2018-07-14T14:29:23.119Z,96628.00
2018-07-14T14:31:51.066Z,96624.00
2018-07-14T14:34:19.058Z,96606.00
2018-07-14T14:36:47.011Z,96588.00
2018-07-14T14:39:14.978Z,96585.00
2018-07-14T14:41:42.932Z,96583.00
2018-07-14T14:44:10.904Z,96592.00
2018-07-14T14:46:38.888Z,96514.00
2018-07-14T14:49:06.863Z,96395.00
2018-07-14T14:51:34.818Z,96520.00
2018-07-14T14:54:02.783Z,96384.00
2018-07-14T14:56:30.714Z,96627.00
2018-07-14T14:58:58.681Z,96634.00
2018-07-14T15:01:26.638Z,96613.00
2018-07-14T15:03:54.642Z,96605.00
2018-07-14T15:06:22.575Z,96598.00
2018-07-14T15:08:50.546Z,96590.00
2018-07-14T15:11:18.509Z,96517.00
2018-07-14T15:13:46.480Z,96429.00
2018-07-14T15:16:14.424Z,96410.00
2018-07-14T15:18:42.379Z,96383.00
2018-07-14T15:21:10.373Z,96427.00
2018-07-14T15:23:38.378Z,96571.00
2018-07-14T15:26:06.304Z,96587.00
2018-07-14T15:28:34.281Z,96573.00
2018-07-14T15:31:02.258Z,96550.00
2018-07-14T15:33:30.223Z,96558.00
2018-07-14T15:35:58.145Z,96564.00
2018-07-14T15:38:26.118Z,96557.00
2018-07-14T15:40:54.057Z,96569.00
2018-07-14T15:43:22.054Z,96564.00
2018-07-14T15:45:50.033Z,96567.00
2018-07-14T15:48:17.992Z,96566.00
2018-07-14T15:50:45.934Z,96567.00
2018-07-14T15:53:13.902Z,96568.00
2018-07-14T15:55:41.854Z,96561.00
2018-07-14T15:58:09.906Z,96572.00
2018-07-14T16:00:37.909Z,96570.00
2018-07-14T16:03:06.060Z,96570.00
2018-07-14T16:05:34.032Z,96579.00
2018-07-14T16:08:01.984Z,96575.00
2018-07-14T16:10:29.919Z,96589.00
2018-07-14T16:12:57.886Z,96577.00
2018-07-14T16:15:26.399Z,96570.00
2018-07-14T16:17:54.368Z,96594.00
2018-07-14T16:20:22.310Z,96565.00
2018-07-14T16:22:50.364Z,96567.00
2018-07-14T16:25:18.295Z,96570.00
2018-07-14T16:27:46.239Z,96569.00
2018-07-14T16:30:14.171Z,96573.00
2018-07-14T16:32:42.141Z,96560.00
2018-07-14T16:35:10.105Z,96556.00
2018-07-14T16:37:38.004Z,96563.00
2018-07-14T16:40:05.944Z,96563.00
2018-07-14T16:42:33.901Z,96559.00
2018-07-14T16:45:01.817Z,96563.00
2018-07-14T16:47:29.785Z,96560.00
2018-07-14T16:49:57.706Z,96557.00
2018-07-14T16:52:25.660Z,96553.00
2018-07-14T16:54:53.595Z,96558.00
2018-07-14T16:57:21.564Z,96558.00
2018-07-14T16:59:49.593Z,96554.00
2018-07-14T17:02:17.510Z,96549.00
2018-07-14T17:04:45.466Z,96547.00
2018-07-14T17:07:13.467Z,96545.00
2018-07-14T17:09:41.397Z,96556.00
2018-07-14T17:12:09.343Z,96550.00
2018-07-14T17:14:37.301Z,96553.00
2018-07-14T17:17:05.269Z,96552.00
2018-07-14T17:19:33.230Z,96536.00
2018-07-14T17:22:01.155Z,96548.00
2018-07-14T17:24:29.098Z,96555.00
2018-07-14T17:26:57.074Z,96547.00
2018-07-14T17:29:24.989Z,96546.00
2018-07-14T17:31:52.920Z,96548.00
2018-07-14T17:34:20.871Z,96553.00
2018-07-14T17:36:48.806Z,96551.00
2018-07-14T17:39:16.776Z,96548.00
2018-07-14T17:41:44.712Z,96557.00
2018-07-14T17:44:12.670Z,96554.00
2018-07-14T17:46:40.590Z,96557.00
2018-07-14T17:49:08.589Z,96561.00
2018-07-14T17:51:36.650Z,96562.00
2018-07-14T17:54:04.489Z,96562.00
2018-07-14T17:56:32.433Z,96567.00
2018-07-14T17:59:00.418Z,96565.00
2018-07-14T18:01:28.351Z,96566.00
2018-07-14T18:03:56.299Z,96566.00
2018-07-14T18:06:24.232Z,96568.00
2018-07-14T18:08:52.179Z,96563.00
2018-07-14T18:11:20.166Z,96589.00
2018-07-14T18:13:48.170Z,96591.00
2018-07-14T18:16:16.118Z,96617.00
2018-07-14T18:18:44.057Z,96617.00
2018-07-14T18:21:12.029Z,96622.00
2018-07-14T18:23:39.981Z,96614.00
2018-07-14T18:26:07.903Z,96591.00
2018-07-14T18:28:35.851Z,96571.00
2018-07-14T18:31:03.781Z,96573.00
2018-07-14T18:33:31.775Z,96585.00
2018-07-14T18:35:59.752Z,96603.00
2018-07-14T18:38:27.749Z,96604.00
2018-07-14T18:40:55.673Z,96621.00
2018-07-14T18:43:23.641Z,96617.00
2018-07-14T18:45:51.573Z,96621.00
2018-07-14T18:48:19.511Z,96629.00
2018-07-14T18:50:47.472Z,96632.00
2018-07-14T18:53:15.425Z,96634.00
2018-07-14T18:55:43.378Z,96635.00
2018-07-14T18:58:11.380Z,96630.00
2018-07-14T19:00:39.357Z,96642.00
2018-07-14T19:03:07.321Z,96638.00
2018-07-14T19:05:35.246Z,96637.00
2018-07-14T19:08:03.253Z,96646.00
2018-07-14T19:10:31.183Z,96648.00
2018-07-14T19:12:59.157Z,96642.00
2018-07-14T19:15:27.113Z,96641.00
2018-07-14T19:17:55.094Z,96644.00
2018-07-14T19:20:23.051Z,96639.00
2018-07-14T19:22:51.077Z,96644.00
2018-07-14T19:25:19.006Z,96644.00
2018-07-14T19:27:46.997Z,96641.00
2018-07-14T19:30:14.928Z,96647.00
2018-07-14T19:32:42.879Z,96651.00
2018-07-14T19:35:10.809Z,96657.00
2018-07-14T19:37:38.762Z,96659.00
2018-07-14T19:40:06.865Z,96658.00
2018-07-14T19:42:34.818Z,96655.00
2018-07-14T19:45:02.914Z,96665.00
2018-07-14T19:47:30.884Z,96666.00
2018-07-14T19:49:58.835Z,96663.00
2018-07-14T19:52:26.804Z,96668.00
2018-07-14T19:54:54.729Z,96659.00
2018-07-14T19:57:22.696Z,96669.00
2018-07-14T19:59:50.625Z,96672.00
2018-07-14T20:02:18.646Z,96680.00
2018-07-14T20:04:46.705Z,96675.00
2018-07-14T20:07:14.775Z,96677.00
2018-07-14T20:09:42.732Z,96681.00
2018-07-14T20:12:10.693Z,96683.00
2018-07-14T20:14:38.650Z,96687.00
2018-07-14T20:17:06.616Z,96685.00
2018-07-14T20:19:34.567Z,96689.00
2018-07-14T20:22:02.560Z,96685.00
2018-07-14T20:24:30.532Z,96688.00
2018-07-14T20:26:58.529Z,96693.00
2018-07-14T20:29:26.473Z,96698.00
2018-07-14T20:31:54.430Z,96691.00
2018-07-14T20:34:22.368Z,96695.00
2018-07-14T20:36:50.402Z,96692.00
2018-07-14T20:39:18.352Z,96689.00
2018-07-14T20:41:46.439Z,96696.00
2018-07-14T20:44:14.322Z,96692.00
2018-07-14T20:46:42.266Z,96688.00
2018-07-14T20:49:10.214Z,96688.00
2018-07-14T20:51:38.180Z,96684.00
2018-07-14T20:54:06.186Z,96687.00
2018-07-14T20:56:34.154Z,96686.00
2018-07-14T20:59:02.075Z,96687.00
2018-07-14T21:01:30.025Z,96676.00
2018-07-14T21:03:57.959Z,96674.00
2018-07-14T21:06:25.910Z,96685.00
2018-07-14T21:08:53.842Z,96673.00
2018-07-14T21:11:21.800Z,96672.00
2018-07-14T21:13:49.741Z,96677.00
2018-07-14T21:16:17.695Z,96674.00
2018-07-14T21:18:45.617Z,96683.00
2018-07-14T21:21:13.670Z,96682.00
2018-07-14T21:23:41.560Z,96688.00
2018-07-14T21:26:09.525Z,96683.00
2018-07-14T21:28:37.493Z,96680.00
2018-07-14T21:31:05.874Z,96677.00
2018-07-14T21:33:33.859Z,96679.00
2018-07-14T21:36:01.852Z,96683.00
2018-07-14T21:38:29.771Z,96683.00
2018-07-14T21:40:57.730Z,96683.00
2018-07-14T21:43:25.657Z,96678.00
2018-07-14T21:45:53.791Z,96678.00
2018-07-14T21:48:21.701Z,96683.00
2018-07-14T21:50:49.779Z,96682.00
2018-07-14T21:53:17.637Z,96685.00
2018-07-14T21:55:45.573Z,96688.00
2018-07-14T21:58:13.547Z,96685.00
2018-07-14T22:00:59.470Z,96695.00
2018-07-14T22:03:27.404Z,96691.00
2018-07-14T22:05:55.370Z,96683.00
2018-07-14T22:08:23.298Z,96691.00
2018-07-14T22:10:51.242Z,96690.00
2018-07-14T22:13:19.152Z,96689.00
2018-07-14T22:15:47.114Z,96688.00
2018-07-14T22:18:15.057Z,96688.00
2018-07-14T22:20:43.013Z,96686.00
2018-07-14T22:23:11.107Z,96689.00
2018-07-14T22:25:39.019Z,96697.00
2018-07-14T22:28:06.986Z,96695.00
2018-07-14T22:30:34.946Z,96697.00
2018-07-14T22:33:02.897Z,96700.00
2018-07-14T22:35:30.843Z,96704.00
2018-07-14T22:37:58.767Z,96701.00
2018-07-14T22:40:26.767Z,96701.00
2018-07-14T22:42:54.684Z,96699.00
2018-07-14T22:45:22.650Z,96696.00
2018-07-14T22:47:50.589Z,96696.00
2018-07-14T22:50:18.561Z,96698.00
2018-07-14T22:52:46.528Z,96704.00
2018-07-14T22:55:14.512Z,96693.00
2018-07-14T22:57:42.439Z,96702.00
2018-07-14T23:00:10.395Z,96699.00
2018-07-14T23:02:38.308Z,96696.00
2018-07-14T23:05:06.303Z,96697.00
2018-07-14T23:07:34.257Z,96709.00
2018-07-14T23:10:02.419Z,96705.00
2018-07-14T23:12:30.380Z,96705.00
2018-07-14T23:14:58.382Z,96703.00
2018-07-14T23:17:26.283Z,96701.00
2018-07-14T23:19:54.240Z,96705.00
2018-07-14T23:22:22.167Z,96703.00
2018-07-14T23:24:50.264Z,96696.00
2018-07-14T23:27:18.050Z,96693.00
2018-07-14T23:29:46.052Z,96703.00
2018-07-14T23:32:13.980Z,96701.00
2018-07-14T23:34:44.997Z,96708.00
2018-07-14T23:37:12.901Z,96713.00
2018-07-14T23:39:40.915Z,96705.00
2018-07-14T23:42:10.100Z,96699.00
2018-07-14T23:44:38.064Z,96710.00
2018-07-14T23:47:05.974Z,96708.00
2018-07-14T23:49:34.067Z,96707.00
2018-07-14T23:52:02.199Z,96709.00
2018-07-14T23:54:30.125Z,96706.00
2018-07-14T23:56:58.075Z,96702.00
2018-07-14T23:59:26.058Z,96698.00
